sensor_id;sensor_type;location;lat;lon;timestamp;P1;durP1;ratioP1;P2;durP2;ratioP2
40787;SDS011;26497;52.494;7.546;2023-07-30T00:02:22;128.40;;;121.00;;
40787;SDS011;26497;52.494;7.546;2023-07-30T00:04:50;127.05;;;119.60;;
40787;SDS011;26497;52.494;7.546;2023-07-30T00:07:18;122.85;;;115.22;;
40787;SDS011;26497;52.494;7.546;2023-07-30T00:09:47;130.35;;;122.60;;
40787;SDS011;26497;52.494;7.546;2023-07-30T00:12:15;1999.90;;;999.90;;
40787;SDS011;26497;52.494;7.546;2023-07-30T00:14:42;594.50;;;338.65;;
40787;SDS011;26497;52.494;7.546;2023-07-30T00:17:09;1999.90;;;999.90;;
40787;SDS011;26497;52.494;7.546;2023-07-30T00:19:36;1999.90;;;999.90;;
40787;SDS011;26497;52.494;7.546;2023-07-30T00:22:07;1999.90;;;999.90;;
40787;SDS011;26497;52.494;7.546;2023-07-30T00:24:34;1999.90;;;999.90;;
40787;SDS011;26497;52.494;7.546;2023-07-30T00:27:01;1999.90;;;999.90;;
40787;SDS011;26497;52.494;7.546;2023-07-30T00:29:28;1999.90;;;999.90;;
40787;SDS011;26497;52.494;7.546;2023-07-30T00:31:55;1999.90;;;999.90;;
40787;SDS011;26497;52.494;7.546;2023-07-30T00:34:22;1999.90;;;999.90;;
40787;SDS011;26497;52.494;7.546;2023-07-30T00:36:49;1999.90;;;999.90;;
40787;SDS011;26497;52.494;7.546;2023-07-30T00:39:17;1999.90;;;999.90;;
40787;SDS011;26497;52.494;7.546;2023-07-30T00:41:44;567.60;;;313.13;;
40787;SDS011;26497;52.494;7.546;2023-07-30T00:44:11;86.50;;;80.70;;
40787;SDS011;26497;52.494;7.546;2023-07-30T00:46:38;87.53;;;81.20;;
40787;SDS011;26497;52.494;7.546;2023-07-30T00:49:05;84.72;;;79.55;;
40787;SDS011;26497;52.494;7.546;2023-07-30T00:51:33;83.22;;;76.78;;
40787;SDS011;26497;52.494;7.546;2023-07-30T00:54:00;81.80;;;76.22;;
40787;SDS011;26497;52.494;7.546;2023-07-30T00:56:29;79.78;;;74.93;;
40787;SDS011;26497;52.494;7.546;2023-07-30T00:58:56;79.85;;;74.30;;
40787;SDS011;26497;52.494;7.546;2023-07-30T01:01:27;80.10;;;74.75;;
40787;SDS011;26497;52.494;7.546;2023-07-30T01:03:57;81.35;;;75.47;;
40787;SDS011;26497;52.494;7.546;2023-07-30T01:06:24;80.32;;;75.43;;
40787;SDS011;26497;52.494;7.546;2023-07-30T01:08:51;81.40;;;75.53;;
40787;SDS011;26497;52.494;7.546;2023-07-30T01:11:20;77.95;;;72.50;;
40787;SDS011;26497;52.494;7.546;2023-07-30T01:13:50;78.50;;;72.65;;
40787;SDS011;26497;52.494;7.546;2023-07-30T01:16:17;77.80;;;72.43;;
40787;SDS011;26497;52.494;7.546;2023-07-30T01:18:44;78.35;;;73.40;;
40787;SDS011;26497;52.494;7.546;2023-07-30T01:21:13;77.68;;;72.38;;
40787;SDS011;26497;52.494;7.546;2023-07-30T01:23:40;75.68;;;70.28;;
40787;SDS011;26497;52.494;7.546;2023-07-30T01:26:10;70.30;;;65.85;;
40787;SDS011;26497;52.494;7.546;2023-07-30T01:28:46;73.45;;;67.93;;
40787;SDS011;26497;52.494;7.546;2023-07-30T01:31:17;68.63;;;63.85;;
40787;SDS011;26497;52.494;7.546;2023-07-30T01:33:46;68.60;;;64.20;;
40787;SDS011;26497;52.494;7.546;2023-07-30T01:36:19;68.50;;;63.75;;
40787;SDS011;26497;52.494;7.546;2023-07-30T01:38:47;68.60;;;64.05;;
40787;SDS011;26497;52.494;7.546;2023-07-30T01:41:16;69.25;;;64.65;;
40787;SDS011;26497;52.494;7.546;2023-07-30T01:43:43;72.85;;;67.20;;
40787;SDS011;26497;52.494;7.546;2023-07-30T01:46:10;70.30;;;64.45;;
40787;SDS011;26497;52.494;7.546;2023-07-30T01:48:37;67.75;;;63.85;;
40787;SDS011;26497;52.494;7.546;2023-07-30T01:51:04;69.93;;;65.20;;
40787;SDS011;26497;52.494;7.546;2023-07-30T01:53:32;69.00;;;63.45;;
40787;SDS011;26497;52.494;7.546;2023-07-30T01:55:59;70.65;;;66.40;;
40787;SDS011;26497;52.494;7.546;2023-07-30T01:58:26;70.75;;;66.50;;
40787;SDS011;26497;52.494;7.546;2023-07-30T02:00:53;70.40;;;65.15;;
40787;SDS011;26497;52.494;7.546;2023-07-30T02:03:20;70.75;;;65.80;;
40787;SDS011;26497;52.494;7.546;2023-07-30T02:05:47;71.75;;;66.18;;
40787;SDS011;26497;52.494;7.546;2023-07-30T02:08:14;70.63;;;65.65;;
40787;SDS011;26497;52.494;7.546;2023-07-30T02:10:43;69.35;;;64.10;;
40787;SDS011;26497;52.494;7.546;2023-07-30T02:13:10;65.78;;;61.42;;
40787;SDS011;26497;52.494;7.546;2023-07-30T02:15:39;64.57;;;60.17;;
40787;SDS011;26497;52.494;7.546;2023-07-30T02:18:07;62.60;;;58.03;;
40787;SDS011;26497;52.494;7.546;2023-07-30T02:20:35;62.47;;;57.97;;
40787;SDS011;26497;52.494;7.546;2023-07-30T02:23:02;62.55;;;57.83;;
40787;SDS011;26497;52.494;7.546;2023-07-30T02:25:29;60.95;;;56.25;;
40787;SDS011;26497;52.494;7.546;2023-07-30T02:27:58;64.00;;;58.78;;
40787;SDS011;26497;52.494;7.546;2023-07-30T02:30:26;61.58;;;57.08;;
40787;SDS011;26497;52.494;7.546;2023-07-30T02:32:53;63.20;;;57.92;;
40787;SDS011;26497;52.494;7.546;2023-07-30T02:35:20;62.72;;;57.42;;
40787;SDS011;26497;52.494;7.546;2023-07-30T02:37:47;63.97;;;58.80;;
40787;SDS011;26497;52.494;7.546;2023-07-30T02:40:14;64.78;;;59.28;;
40787;SDS011;26497;52.494;7.546;2023-07-30T02:42:42;64.47;;;58.67;;
40787;SDS011;26497;52.494;7.546;2023-07-30T02:45:10;60.92;;;55.92;;
40787;SDS011;26497;52.494;7.546;2023-07-30T02:47:37;63.08;;;57.58;;
40787;SDS011;26497;52.494;7.546;2023-07-30T02:50:04;60.63;;;56.25;;
40787;SDS011;26497;52.494;7.546;2023-07-30T02:52:32;62.78;;;57.95;;
40787;SDS011;26497;52.494;7.546;2023-07-30T02:54:59;61.50;;;56.83;;
40787;SDS011;26497;52.494;7.546;2023-07-30T02:57:26;61.70;;;56.38;;
40787;SDS011;26497;52.494;7.546;2023-07-30T02:59:53;61.40;;;56.17;;
40787;SDS011;26497;52.494;7.546;2023-07-30T03:02:21;64.82;;;57.42;;
40787;SDS011;26497;52.494;7.546;2023-07-30T03:04:48;59.90;;;55.67;;
40787;SDS011;26497;52.494;7.546;2023-07-30T03:07:15;63.38;;;57.53;;
40787;SDS011;26497;52.494;7.546;2023-07-30T03:09:43;58.17;;;54.13;;
40787;SDS011;26497;52.494;7.546;2023-07-30T03:12:10;60.97;;;55.67;;
40787;SDS011;26497;52.494;7.546;2023-07-30T03:14:37;59.80;;;55.25;;
40787;SDS011;26497;52.494;7.546;2023-07-30T03:17:04;62.13;;;56.97;;
40787;SDS011;26497;52.494;7.546;2023-07-30T03:19:33;59.65;;;55.22;;
40787;SDS011;26497;52.494;7.546;2023-07-30T03:22:00;61.72;;;56.25;;
40787;SDS011;26497;52.494;7.546;2023-07-30T03:24:26;62.47;;;57.53;;
40787;SDS011;26497;52.494;7.546;2023-07-30T03:26:53;60.08;;;54.83;;
40787;SDS011;26497;52.494;7.546;2023-07-30T03:29:20;61.25;;;56.35;;
40787;SDS011;26497;52.494;7.546;2023-07-30T03:31:47;58.90;;;54.40;;
40787;SDS011;26497;52.494;7.546;2023-07-30T03:34:14;58.40;;;52.90;;
40787;SDS011;26497;52.494;7.546;2023-07-30T03:36:43;57.75;;;53.78;;
40787;SDS011;26497;52.494;7.546;2023-07-30T03:39:10;58.97;;;53.72;;
40787;SDS011;26497;52.494;7.546;2023-07-30T03:41:37;58.28;;;52.97;;
40787;SDS011;26497;52.494;7.546;2023-07-30T03:44:04;57.97;;;53.78;;
40787;SDS011;26497;52.494;7.546;2023-07-30T03:46:31;57.65;;;52.75;;
40787;SDS011;26497;52.494;7.546;2023-07-30T03:48:58;57.65;;;53.00;;
40787;SDS011;26497;52.494;7.546;2023-07-30T03:51:26;57.45;;;52.67;;
40787;SDS011;26497;52.494;7.546;2023-07-30T03:53:55;57.47;;;52.88;;
40787;SDS011;26497;52.494;7.546;2023-07-30T03:56:22;57.50;;;52.25;;
40787;SDS011;26497;52.494;7.546;2023-07-30T03:58:50;59.50;;;54.88;;
40787;SDS011;26497;52.494;7.546;2023-07-30T04:01:17;57.53;;;53.33;;
40787;SDS011;26497;52.494;7.546;2023-07-30T04:03:44;60.67;;;55.17;;
40787;SDS011;26497;52.494;7.546;2023-07-30T04:06:11;60.33;;;55.10;;
40787;SDS011;26497;52.494;7.546;2023-07-30T04:08:38;62.95;;;56.67;;
40787;SDS011;26497;52.494;7.546;2023-07-30T04:11:06;61.30;;;56.92;;
40787;SDS011;26497;52.494;7.546;2023-07-30T04:13:33;60.67;;;55.97;;
40787;SDS011;26497;52.494;7.546;2023-07-30T04:16:00;65.10;;;60.03;;
40787;SDS011;26497;52.494;7.546;2023-07-30T04:18:27;66.07;;;60.38;;
40787;SDS011;26497;52.494;7.546;2023-07-30T04:20:54;65.38;;;60.03;;
40787;SDS011;26497;52.494;7.546;2023-07-30T04:23:21;66.20;;;61.25;;
40787;SDS011;26497;52.494;7.546;2023-07-30T04:25:48;71.07;;;65.97;;
40787;SDS011;26497;52.494;7.546;2023-07-30T04:28:17;66.47;;;61.70;;
40787;SDS011;26497;52.494;7.546;2023-07-30T04:30:44;76.00;;;70.68;;
40787;SDS011;26497;52.494;7.546;2023-07-30T04:33:12;76.35;;;70.63;;
40787;SDS011;26497;52.494;7.546;2023-07-30T04:35:39;86.60;;;80.45;;
40787;SDS011;26497;52.494;7.546;2023-07-30T04:38:07;94.07;;;86.15;;
40787;SDS011;26497;52.494;7.546;2023-07-30T04:40:33;97.55;;;90.93;;
40787;SDS011;26497;52.494;7.546;2023-07-30T04:43:00;103.20;;;96.65;;
40787;SDS011;26497;52.494;7.546;2023-07-30T04:45:29;106.38;;;99.32;;
40787;SDS011;26497;52.494;7.546;2023-07-30T04:47:56;107.85;;;101.55;;
40787;SDS011;26497;52.494;7.546;2023-07-30T04:50:23;105.90;;;98.85;;
40787;SDS011;26497;52.494;7.546;2023-07-30T04:52:51;100.30;;;93.80;;
40787;SDS011;26497;52.494;7.546;2023-07-30T04:55:18;93.68;;;87.40;;
40787;SDS011;26497;52.494;7.546;2023-07-30T04:57:45;89.78;;;83.22;;
40787;SDS011;26497;52.494;7.546;2023-07-30T05:00:12;81.50;;;76.43;;
40787;SDS011;26497;52.494;7.546;2023-07-30T05:02:40;83.97;;;77.03;;
40787;SDS011;26497;52.494;7.546;2023-07-30T05:05:07;80.38;;;75.45;;
40787;SDS011;26497;52.494;7.546;2023-07-30T05:07:34;80.03;;;74.95;;
40787;SDS011;26497;52.494;7.546;2023-07-30T05:10:01;78.35;;;72.00;;
40787;SDS011;26497;52.494;7.546;2023-07-30T05:12:31;73.53;;;68.22;;
40787;SDS011;26497;52.494;7.546;2023-07-30T05:14:58;75.97;;;71.03;;
40787;SDS011;26497;52.494;7.546;2023-07-30T05:17:25;74.18;;;69.10;;
40787;SDS011;26497;52.494;7.546;2023-07-30T05:19:53;72.82;;;67.45;;
40787;SDS011;26497;52.494;7.546;2023-07-30T05:22:20;71.18;;;66.00;;
40787;SDS011;26497;52.494;7.546;2023-07-30T05:24:47;73.30;;;68.00;;
40787;SDS011;26497;52.494;7.546;2023-07-30T05:27:14;72.00;;;67.40;;
40787;SDS011;26497;52.494;7.546;2023-07-30T05:29:41;72.60;;;67.25;;
40787;SDS011;26497;52.494;7.546;2023-07-30T05:32:08;71.57;;;67.68;;
40787;SDS011;26497;52.494;7.546;2023-07-30T05:34:35;71.90;;;66.93;;
40787;SDS011;26497;52.494;7.546;2023-07-30T05:37:04;75.80;;;69.80;;
40787;SDS011;26497;52.494;7.546;2023-07-30T05:39:31;73.78;;;68.70;;
40787;SDS011;26497;52.494;7.546;2023-07-30T05:41:58;75.25;;;70.22;;
40787;SDS011;26497;52.494;7.546;2023-07-30T05:44:25;75.18;;;70.03;;
40787;SDS011;26497;52.494;7.546;2023-07-30T05:46:52;73.80;;;69.55;;
40787;SDS011;26497;52.494;7.546;2023-07-30T05:49:19;74.00;;;69.15;;
40787;SDS011;26497;52.494;7.546;2023-07-30T05:51:46;70.88;;;66.00;;
40787;SDS011;26497;52.494;7.546;2023-07-30T05:54:14;78.03;;;72.68;;
40787;SDS011;26497;52.494;7.546;2023-07-30T05:56:41;77.35;;;72.13;;
40787;SDS011;26497;52.494;7.546;2023-07-30T05:59:08;77.70;;;72.20;;
40787;SDS011;26497;52.494;7.546;2023-07-30T06:01:35;76.97;;;72.10;;
40787;SDS011;26497;52.494;7.546;2023-07-30T06:04:02;79.40;;;74.03;;
40787;SDS011;26497;52.494;7.546;2023-07-30T06:06:29;75.55;;;70.53;;
40787;SDS011;26497;52.494;7.546;2023-07-30T06:08:56;76.47;;;71.03;;
40787;SDS011;26497;52.494;7.546;2023-07-30T06:11:24;77.18;;;71.57;;
40787;SDS011;26497;52.494;7.546;2023-07-30T06:13:52;76.20;;;70.35;;
40787;SDS011;26497;52.494;7.546;2023-07-30T06:16:19;75.40;;;69.22;;
40787;SDS011;26497;52.494;7.546;2023-07-30T06:18:46;76.85;;;71.70;;
40787;SDS011;26497;52.494;7.546;2023-07-30T06:21:13;77.30;;;70.85;;
40787;SDS011;26497;52.494;7.546;2023-07-30T06:23:40;81.03;;;74.55;;
40787;SDS011;26497;52.494;7.546;2023-07-30T06:26:07;76.10;;;70.05;;
40787;SDS011;26497;52.494;7.546;2023-07-30T06:28:35;76.90;;;70.35;;
40787;SDS011;26497;52.494;7.546;2023-07-30T06:31:02;75.07;;;69.40;;
40787;SDS011;26497;52.494;7.546;2023-07-30T06:33:29;74.80;;;68.40;;
40787;SDS011;26497;52.494;7.546;2023-07-30T06:35:56;75.95;;;69.68;;
40787;SDS011;26497;52.494;7.546;2023-07-30T06:38:23;75.28;;;69.05;;
40787;SDS011;26497;52.494;7.546;2023-07-30T06:40:50;78.03;;;70.60;;
40787;SDS011;26497;52.494;7.546;2023-07-30T06:43:17;76.60;;;69.50;;
40787;SDS011;26497;52.494;7.546;2023-07-30T06:45:46;77.65;;;70.75;;
40787;SDS011;26497;52.494;7.546;2023-07-30T06:48:13;79.55;;;71.85;;
40787;SDS011;26497;52.494;7.546;2023-07-30T06:50:40;75.22;;;68.47;;
40787;SDS011;26497;52.494;7.546;2023-07-30T06:53:07;72.45;;;66.57;;
40787;SDS011;26497;52.494;7.546;2023-07-30T06:55:34;68.78;;;63.60;;
40787;SDS011;26497;52.494;7.546;2023-07-30T06:58:01;74.43;;;67.28;;
40787;SDS011;26497;52.494;7.546;2023-07-30T07:00:28;73.00;;;66.55;;
40787;SDS011;26497;52.494;7.546;2023-07-30T07:02:57;74.28;;;66.93;;
40787;SDS011;26497;52.494;7.546;2023-07-30T07:05:24;82.65;;;74.75;;
40787;SDS011;26497;52.494;7.546;2023-07-30T07:07:51;78.78;;;71.82;;
40787;SDS011;26497;52.494;7.546;2023-07-30T07:10:18;71.85;;;65.95;;
40787;SDS011;26497;52.494;7.546;2023-07-30T07:12:45;63.45;;;57.15;;
40787;SDS011;26497;52.494;7.546;2023-07-30T07:15:12;60.38;;;53.92;;
40787;SDS011;26497;52.494;7.546;2023-07-30T07:17:39;53.97;;;49.70;;
40787;SDS011;26497;52.494;7.546;2023-07-30T07:20:08;56.47;;;52.20;;
40787;SDS011;26497;52.494;7.546;2023-07-30T07:22:36;57.80;;;52.17;;
40787;SDS011;26497;52.494;7.546;2023-07-30T07:25:03;52.65;;;47.08;;
40787;SDS011;26497;52.494;7.546;2023-07-30T07:27:31;47.47;;;43.03;;
40787;SDS011;26497;52.494;7.546;2023-07-30T07:29:58;46.25;;;41.58;;
40787;SDS011;26497;52.494;7.546;2023-07-30T07:32:25;47.13;;;42.28;;
40787;SDS011;26497;52.494;7.546;2023-07-30T07:34:53;44.53;;;40.53;;
40787;SDS011;26497;52.494;7.546;2023-07-30T07:37:21;44.72;;;40.83;;
40787;SDS011;26497;52.494;7.546;2023-07-30T07:39:48;41.97;;;37.97;;
40787;SDS011;26497;52.494;7.546;2023-07-30T07:42:15;40.25;;;35.92;;
40787;SDS011;26497;52.494;7.546;2023-07-30T07:44:42;40.88;;;36.95;;
40787;SDS011;26497;52.494;7.546;2023-07-30T07:47:11;40.95;;;35.47;;
40787;SDS011;26497;52.494;7.546;2023-07-30T07:49:38;40.72;;;36.67;;
40787;SDS011;26497;52.494;7.546;2023-07-30T07:52:05;39.83;;;36.28;;
40787;SDS011;26497;52.494;7.546;2023-07-30T07:54:34;44.92;;;40.72;;
40787;SDS011;26497;52.494;7.546;2023-07-30T07:57:01;48.65;;;44.00;;
40787;SDS011;26497;52.494;7.546;2023-07-30T07:59:29;81.85;;;76.15;;
40787;SDS011;26497;52.494;7.546;2023-07-30T08:01:56;75.68;;;69.88;;
40787;SDS011;26497;52.494;7.546;2023-07-30T08:04:23;88.90;;;82.13;;
40787;SDS011;26497;52.494;7.546;2023-07-30T08:06:50;90.65;;;84.18;;
40787;SDS011;26497;52.494;7.546;2023-07-30T08:09:16;110.47;;;103.40;;
40787;SDS011;26497;52.494;7.546;2023-07-30T08:11:44;116.55;;;108.38;;
40787;SDS011;26497;52.494;7.546;2023-07-30T08:14:11;110.55;;;102.68;;
40787;SDS011;26497;52.494;7.546;2023-07-30T08:16:38;96.40;;;89.68;;
40787;SDS011;26497;52.494;7.546;2023-07-30T08:19:05;79.88;;;74.15;;
40787;SDS011;26497;52.494;7.546;2023-07-30T08:21:32;59.17;;;54.72;;
40787;SDS011;26497;52.494;7.546;2023-07-30T08:23:59;52.65;;;47.88;;
40787;SDS011;26497;52.494;7.546;2023-07-30T08:26:26;49.40;;;45.03;;
40787;SDS011;26497;52.494;7.546;2023-07-30T08:28:54;50.55;;;46.75;;
40787;SDS011;26497;52.494;7.546;2023-07-30T08:31:21;51.65;;;47.45;;
40787;SDS011;26497;52.494;7.546;2023-07-30T08:33:49;50.63;;;46.17;;
40787;SDS011;26497;52.494;7.546;2023-07-30T08:36:16;51.40;;;47.03;;
40787;SDS011;26497;52.494;7.546;2023-07-30T08:38:43;51.90;;;47.17;;
40787;SDS011;26497;52.494;7.546;2023-07-30T08:41:10;51.90;;;46.78;;
40787;SDS011;26497;52.494;7.546;2023-07-30T08:43:37;50.70;;;45.33;;
40787;SDS011;26497;52.494;7.546;2023-07-30T08:46:05;50.13;;;45.15;;
40787;SDS011;26497;52.494;7.546;2023-07-30T08:48:32;49.35;;;45.35;;
40787;SDS011;26497;52.494;7.546;2023-07-30T08:50:59;48.30;;;44.22;;
40787;SDS011;26497;52.494;7.546;2023-07-30T08:53:27;50.92;;;46.38;;
40787;SDS011;26497;52.494;7.546;2023-07-30T08:55:55;77.63;;;71.38;;
40787;SDS011;26497;52.494;7.546;2023-07-30T08:58:24;73.28;;;67.97;;
40787;SDS011;26497;52.494;7.546;2023-07-30T09:00:53;55.38;;;50.97;;
40787;SDS011;26497;52.494;7.546;2023-07-30T09:03:24;51.80;;;47.38;;
40787;SDS011;26497;52.494;7.546;2023-07-30T09:05:52;47.10;;;43.08;;
40787;SDS011;26497;52.494;7.546;2023-07-30T09:08:19;43.70;;;40.40;;
40787;SDS011;26497;52.494;7.546;2023-07-30T09:10:47;47.00;;;42.47;;
40787;SDS011;26497;52.494;7.546;2023-07-30T09:13:20;55.50;;;51.50;;
40787;SDS011;26497;52.494;7.546;2023-07-30T09:15:48;59.50;;;54.65;;
40787;SDS011;26497;52.494;7.546;2023-07-30T09:18:16;72.30;;;67.25;;
40787;SDS011;26497;52.494;7.546;2023-07-30T09:20:45;57.80;;;53.75;;
40787;SDS011;26497;52.494;7.546;2023-07-30T09:23:12;48.42;;;45.38;;
40787;SDS011;26497;52.494;7.546;2023-07-30T09:25:40;58.80;;;54.72;;
40787;SDS011;26497;52.494;7.546;2023-07-30T09:28:07;59.60;;;54.83;;
40787;SDS011;26497;52.494;7.546;2023-07-30T09:30:34;50.55;;;47.03;;
40787;SDS011;26497;52.494;7.546;2023-07-30T09:33:01;53.90;;;49.78;;
40787;SDS011;26497;52.494;7.546;2023-07-30T09:35:28;62.05;;;58.08;;
40787;SDS011;26497;52.494;7.546;2023-07-30T09:38:00;72.22;;;67.72;;
40787;SDS011;26497;52.494;7.546;2023-07-30T09:43:01;62.20;;;57.75;;
40787;SDS011;26497;52.494;7.546;2023-07-30T09:45:32;60.67;;;56.30;;
40787;SDS011;26497;52.494;7.546;2023-07-30T09:48:02;54.72;;;50.75;;
40787;SDS011;26497;52.494;7.546;2023-07-30T09:50:31;50.22;;;46.88;;
40787;SDS011;26497;52.494;7.546;2023-07-30T09:53:01;44.65;;;41.75;;
40787;SDS011;26497;52.494;7.546;2023-07-30T09:55:29;46.83;;;42.67;;
40787;SDS011;26497;52.494;7.546;2023-07-30T09:57:57;46.97;;;43.45;;
40787;SDS011;26497;52.494;7.546;2023-07-30T10:00:24;45.63;;;42.63;;
40787;SDS011;26497;52.494;7.546;2023-07-30T10:02:52;44.95;;;42.05;;
40787;SDS011;26497;52.494;7.546;2023-07-30T10:05:21;45.60;;;42.33;;
40787;SDS011;26497;52.494;7.546;2023-07-30T10:07:55;50.63;;;46.72;;
40787;SDS011;26497;52.494;7.546;2023-07-30T10:12:55;53.78;;;50.08;;
40787;SDS011;26497;52.494;7.546;2023-07-30T10:15:28;78.60;;;73.72;;
40787;SDS011;26497;52.494;7.546;2023-07-30T10:17:56;64.70;;;60.10;;
40787;SDS011;26497;52.494;7.546;2023-07-30T10:20:24;49.67;;;45.58;;
40787;SDS011;26497;52.494;7.546;2023-07-30T10:22:54;56.88;;;52.35;;
40787;SDS011;26497;52.494;7.546;2023-07-30T10:25:26;56.50;;;53.05;;
40787;SDS011;26497;52.494;7.546;2023-07-30T10:27:57;49.80;;;46.17;;
40787;SDS011;26497;52.494;7.546;2023-07-30T10:30:29;73.88;;;69.13;;
40787;SDS011;26497;52.494;7.546;2023-07-30T10:32:58;73.68;;;69.45;;
40787;SDS011;26497;52.494;7.546;2023-07-30T10:35:39;65.22;;;61.28;;
40787;SDS011;26497;52.494;7.546;2023-07-30T10:38:14;74.60;;;69.88;;
40787;SDS011;26497;52.494;7.546;2023-07-30T10:43:30;52.25;;;48.33;;
40787;SDS011;26497;52.494;7.546;2023-07-30T10:46:01;53.08;;;49.25;;
40787;SDS011;26497;52.494;7.546;2023-07-30T10:48:35;52.10;;;48.13;;
40787;SDS011;26497;52.494;7.546;2023-07-30T10:51:04;49.10;;;45.58;;
40787;SDS011;26497;52.494;7.546;2023-07-30T10:53:32;59.70;;;55.80;;
40787;SDS011;26497;52.494;7.546;2023-07-30T10:56:01;58.20;;;54.80;;
40787;SDS011;26497;52.494;7.546;2023-07-30T10:58:31;70.63;;;66.30;;
40787;SDS011;26497;52.494;7.546;2023-07-30T11:01:01;50.10;;;46.85;;
40787;SDS011;26497;52.494;7.546;2023-07-30T11:03:29;69.35;;;64.93;;
40787;SDS011;26497;52.494;7.546;2023-07-30T11:05:57;56.67;;;52.47;;
40787;SDS011;26497;52.494;7.546;2023-07-30T11:08:34;74.45;;;69.72;;
40787;SDS011;26497;52.494;7.546;2023-07-30T11:11:05;70.70;;;65.60;;
40787;SDS011;26497;52.494;7.546;2023-07-30T11:13:37;99.63;;;93.53;;
40787;SDS011;26497;52.494;7.546;2023-07-30T11:16:06;110.45;;;104.15;;
40787;SDS011;26497;52.494;7.546;2023-07-30T11:18:34;93.32;;;87.63;;
40787;SDS011;26497;52.494;7.546;2023-07-30T11:21:02;82.00;;;76.95;;
40787;SDS011;26497;52.494;7.546;2023-07-30T11:23:30;75.93;;;70.70;;
40787;SDS011;26497;52.494;7.546;2023-07-30T11:25:59;85.00;;;79.53;;
40787;SDS011;26497;52.494;7.546;2023-07-30T11:28:29;76.60;;;71.38;;
40787;SDS011;26497;52.494;7.546;2023-07-30T11:31:00;73.13;;;67.28;;
40787;SDS011;26497;52.494;7.546;2023-07-30T11:33:30;57.85;;;53.53;;
40787;SDS011;26497;52.494;7.546;2023-07-30T11:35:57;64.65;;;59.75;;
40787;SDS011;26497;52.494;7.546;2023-07-30T11:38:28;62.05;;;58.03;;
40787;SDS011;26497;52.494;7.546;2023-07-30T11:40:57;53.75;;;49.67;;
40787;SDS011;26497;52.494;7.546;2023-07-30T11:43:25;53.53;;;50.17;;
40787;SDS011;26497;52.494;7.546;2023-07-30T11:46:10;54.28;;;50.28;;
40787;SDS011;26497;52.494;7.546;2023-07-30T11:48:39;53.67;;;50.40;;
40787;SDS011;26497;52.494;7.546;2023-07-30T11:51:17;51.10;;;47.67;;
40787;SDS011;26497;52.494;7.546;2023-07-30T11:53:47;52.25;;;48.50;;
40787;SDS011;26497;52.494;7.546;2023-07-30T11:56:17;54.15;;;50.00;;
40787;SDS011;26497;52.494;7.546;2023-07-30T11:58:49;50.10;;;46.17;;
40787;SDS011;26497;52.494;7.546;2023-07-30T12:01:23;54.17;;;50.67;;
40787;SDS011;26497;52.494;7.546;2023-07-30T12:03:56;47.95;;;44.58;;
40787;SDS011;26497;52.494;7.546;2023-07-30T12:06:24;44.38;;;41.13;;
40787;SDS011;26497;52.494;7.546;2023-07-30T12:09:08;41.17;;;38.22;;
40787;SDS011;26497;52.494;7.546;2023-07-30T12:11:43;46.90;;;43.53;;
40787;SDS011;26497;52.494;7.546;2023-07-30T12:14:12;41.63;;;38.00;;
40787;SDS011;26497;52.494;7.546;2023-07-30T12:16:40;48.95;;;44.88;;
40787;SDS011;26497;52.494;7.546;2023-07-30T12:19:07;50.40;;;46.83;;
40787;SDS011;26497;52.494;7.546;2023-07-30T12:21:34;46.75;;;43.80;;
40787;SDS011;26497;52.494;7.546;2023-07-30T12:24:01;52.05;;;48.17;;
40787;SDS011;26497;52.494;7.546;2023-07-30T12:26:29;52.55;;;48.38;;
40787;SDS011;26497;52.494;7.546;2023-07-30T12:28:57;55.35;;;51.17;;
40787;SDS011;26497;52.494;7.546;2023-07-30T12:31:24;51.90;;;47.67;;
40787;SDS011;26497;52.494;7.546;2023-07-30T12:33:52;56.33;;;50.80;;
40787;SDS011;26497;52.494;7.546;2023-07-30T12:36:19;57.33;;;53.67;;
40787;SDS011;26497;52.494;7.546;2023-07-30T12:38:46;70.35;;;64.68;;
40787;SDS011;26497;52.494;7.546;2023-07-30T12:41:13;82.40;;;76.43;;
40787;SDS011;26497;52.494;7.546;2023-07-30T12:43:40;90.40;;;83.85;;
40787;SDS011;26497;52.494;7.546;2023-07-30T12:46:07;89.15;;;82.60;;
40787;SDS011;26497;52.494;7.546;2023-07-30T12:48:34;92.57;;;86.55;;
40787;SDS011;26497;52.494;7.546;2023-07-30T12:51:02;90.13;;;84.07;;
40787;SDS011;26497;52.494;7.546;2023-07-30T12:53:29;89.40;;;83.70;;
40787;SDS011;26497;52.494;7.546;2023-07-30T12:55:56;87.03;;;81.20;;
40787;SDS011;26497;52.494;7.546;2023-07-30T12:58:23;86.88;;;81.18;;
40787;SDS011;26497;52.494;7.546;2023-07-30T13:00:50;81.88;;;76.50;;
40787;SDS011;26497;52.494;7.546;2023-07-30T13:03:17;79.25;;;73.95;;
40787;SDS011;26497;52.494;7.546;2023-07-30T13:05:44;75.60;;;70.50;;
40787;SDS011;26497;52.494;7.546;2023-07-30T13:08:12;1999.90;;;999.90;;
40787;SDS011;26497;52.494;7.546;2023-07-30T13:10:39;1999.90;;;999.90;;
40787;SDS011;26497;52.494;7.546;2023-07-30T13:13:06;1999.90;;;999.90;;
40787;SDS011;26497;52.494;7.546;2023-07-30T13:15:33;1999.90;;;999.90;;
40787;SDS011;26497;52.494;7.546;2023-07-30T13:18:00;1999.90;;;999.90;;
40787;SDS011;26497;52.494;7.546;2023-07-30T13:20:28;105.45;;;83.68;;
40787;SDS011;26497;52.494;7.546;2023-07-30T13:22:56;93.88;;;88.65;;
40787;SDS011;26497;52.494;7.546;2023-07-30T13:25:24;55.83;;;51.88;;
40787;SDS011;26497;52.494;7.546;2023-07-30T13:27:51;41.97;;;39.22;;
40787;SDS011;26497;52.494;7.546;2023-07-30T13:30:18;37.72;;;35.40;;
40787;SDS011;26497;52.494;7.546;2023-07-30T13:32:45;32.30;;;29.83;;
40787;SDS011;26497;52.494;7.546;2023-07-30T13:35:12;30.63;;;28.58;;
40787;SDS011;26497;52.494;7.546;2023-07-30T13:37:39;34.88;;;32.75;;
40787;SDS011;26497;52.494;7.546;2023-07-30T13:40:06;35.78;;;33.67;;
40787;SDS011;26497;52.494;7.546;2023-07-30T13:42:36;44.38;;;41.72;;
40787;SDS011;26497;52.494;7.546;2023-07-30T13:45:03;55.33;;;52.03;;
40787;SDS011;26497;52.494;7.546;2023-07-30T13:47:31;43.08;;;39.83;;
40787;SDS011;26497;52.494;7.546;2023-07-30T13:49:58;55.13;;;51.53;;
40787;SDS011;26497;52.494;7.546;2023-07-30T13:52:26;40.60;;;37.90;;
40787;SDS011;26497;52.494;7.546;2023-07-30T13:54:54;40.15;;;37.55;;
40787;SDS011;26497;52.494;7.546;2023-07-30T13:57:22;39.10;;;36.80;;
40787;SDS011;26497;52.494;7.546;2023-07-30T13:59:51;41.47;;;39.03;;
40787;SDS011;26497;52.494;7.546;2023-07-30T14:02:18;39.80;;;37.13;;
40787;SDS011;26497;52.494;7.546;2023-07-30T14:04:45;43.85;;;40.95;;
40787;SDS011;26497;52.494;7.546;2023-07-30T14:07:12;45.20;;;42.08;;
40787;SDS011;26497;52.494;7.546;2023-07-30T14:09:41;35.22;;;32.53;;
40787;SDS011;26497;52.494;7.546;2023-07-30T14:12:08;50.97;;;47.63;;
40787;SDS011;26497;52.494;7.546;2023-07-30T14:14:35;44.10;;;41.45;;
40787;SDS011;26497;52.494;7.546;2023-07-30T14:17:04;39.03;;;36.72;;
40787;SDS011;26497;52.494;7.546;2023-07-30T14:19:32;38.27;;;35.50;;
40787;SDS011;26497;52.494;7.546;2023-07-30T14:21:59;34.30;;;31.55;;
40787;SDS011;26497;52.494;7.546;2023-07-30T14:24:26;32.97;;;30.98;;
40787;SDS011;26497;52.494;7.546;2023-07-30T14:26:53;33.40;;;31.20;;
40787;SDS011;26497;52.494;7.546;2023-07-30T14:29:21;32.75;;;30.60;;
40787;SDS011;26497;52.494;7.546;2023-07-30T14:31:48;33.55;;;31.48;;